sensor_id;sensor_type;location;lat;lon;timestamp;P1;durP1;ratioP1;P2;durP2;ratioP2
38609;SDS011;24367;51.640;9.566;2023-03-01T00:01:13;3.65;;;2.67;;
38609;SDS011;24367;51.640;9.566;2023-03-01T00:03:40;3.83;;;2.55;;
38609;SDS011;24367;51.640;9.566;2023-03-01T00:06:07;3.85;;;2.42;;
38609;SDS011;24367;51.640;9.566;2023-03-01T00:08:33;3.88;;;2.60;;
38609;SDS011;24367;51.640;9.566;2023-03-01T00:11:03;3.47;;;2.40;;
38609;SDS011;24367;51.640;9.566;2023-03-01T00:13:30;3.40;;;2.47;;
38609;SDS011;24367;51.640;9.566;2023-03-01T00:15:57;3.55;;;2.50;;
38609;SDS011;24367;51.640;9.566;2023-03-01T00:18:23;3.42;;;2.20;;
38609;SDS011;24367;51.640;9.566;2023-03-01T00:20:50;3.20;;;2.42;;
38609;SDS011;24367;51.640;9.566;2023-03-01T00:23:17;3.13;;;2.35;;
38609;SDS011;24367;51.640;9.566;2023-03-01T00:25:43;4.20;;;2.63;;
38609;SDS011;24367;51.640;9.566;2023-03-01T00:28:11;3.60;;;2.40;;
38609;SDS011;24367;51.640;9.566;2023-03-01T00:30:38;3.67;;;2.67;;
38609;SDS011;24367;51.640;9.566;2023-03-01T00:33:04;3.40;;;2.35;;
38609;SDS011;24367;51.640;9.566;2023-03-01T00:35:31;3.78;;;2.50;;
38609;SDS011;24367;51.640;9.566;2023-03-01T00:37:58;5.32;;;2.47;;
38609;SDS011;24367;51.640;9.566;2023-03-01T00:40:24;6.85;;;2.58;;
38609;SDS011;24367;51.640;9.566;2023-03-01T00:42:51;2.97;;;2.15;;
38609;SDS011;24367;51.640;9.566;2023-03-01T00:45:19;2.97;;;2.13;;
38609;SDS011;24367;51.640;9.566;2023-03-01T00:47:45;4.43;;;2.38;;
38609;SDS011;24367;51.640;9.566;2023-03-01T00:50:12;3.50;;;2.20;;
38609;SDS011;24367;51.640;9.566;2023-03-01T00:52:38;11.10;;;2.35;;
38609;SDS011;24367;51.640;9.566;2023-03-01T00:55:06;5.43;;;2.30;;
38609;SDS011;24367;51.640;9.566;2023-03-01T00:57:33;4.25;;;2.72;;
38609;SDS011;24367;51.640;9.566;2023-03-01T00:59:59;7.40;;;2.40;;
38609;SDS011;24367;51.640;9.566;2023-03-01T01:02:27;3.20;;;2.20;;
38609;SDS011;24367;51.640;9.566;2023-03-01T01:04:54;5.07;;;2.22;;
38609;SDS011;24367;51.640;9.566;2023-03-01T01:07:20;4.72;;;2.65;;
38609;SDS011;24367;51.640;9.566;2023-03-01T01:09:47;3.60;;;2.60;;
38609;SDS011;24367;51.640;9.566;2023-03-01T01:12:13;3.67;;;2.22;;
38609;SDS011;24367;51.640;9.566;2023-03-01T01:14:40;4.65;;;2.30;;
38609;SDS011;24367;51.640;9.566;2023-03-01T01:17:06;3.13;;;2.28;;
38609;SDS011;24367;51.640;9.566;2023-03-01T01:19:34;3.40;;;2.42;;
38609;SDS011;24367;51.640;9.566;2023-03-01T01:22:00;3.33;;;2.20;;
38609;SDS011;24367;51.640;9.566;2023-03-01T01:24:27;3.20;;;2.50;;
38609;SDS011;24367;51.640;9.566;2023-03-01T01:26:53;4.82;;;2.47;;
38609;SDS011;24367;51.640;9.566;2023-03-01T01:29:20;3.55;;;2.35;;
38609;SDS011;24367;51.640;9.566;2023-03-01T01:31:47;3.45;;;2.53;;
38609;SDS011;24367;51.640;9.566;2023-03-01T01:34:14;3.70;;;2.53;;
38609;SDS011;24367;51.640;9.566;2023-03-01T01:36:46;3.45;;;2.38;;
38609;SDS011;24367;51.640;9.566;2023-03-01T01:39:13;4.43;;;2.30;;
38609;SDS011;24367;51.640;9.566;2023-03-01T01:41:40;3.30;;;2.40;;
38609;SDS011;24367;51.640;9.566;2023-03-01T01:44:12;4.20;;;2.88;;
38609;SDS011;24367;51.640;9.566;2023-03-01T01:46:41;3.67;;;2.40;;
38609;SDS011;24367;51.640;9.566;2023-03-01T01:49:12;3.42;;;2.20;;
38609;SDS011;24367;51.640;9.566;2023-03-01T01:51:45;2.90;;;2.10;;
38609;SDS011;24367;51.640;9.566;2023-03-01T01:54:14;5.43;;;2.33;;
38609;SDS011;24367;51.640;9.566;2023-03-01T01:56:44;3.50;;;2.63;;
38609;SDS011;24367;51.640;9.566;2023-03-01T01:59:15;6.20;;;2.47;;
38609;SDS011;24367;51.640;9.566;2023-03-01T02:01:42;3.28;;;2.15;;
38609;SDS011;24367;51.640;9.566;2023-03-01T02:04:09;3.35;;;2.50;;
38609;SDS011;24367;51.640;9.566;2023-03-01T02:06:36;5.35;;;2.35;;
38609;SDS011;24367;51.640;9.566;2023-03-01T02:09:07;3.95;;;2.42;;
38609;SDS011;24367;51.640;9.566;2023-03-01T02:11:36;3.28;;;2.28;;
38609;SDS011;24367;51.640;9.566;2023-03-01T02:14:03;3.50;;;2.47;;
38609;SDS011;24367;51.640;9.566;2023-03-01T02:16:29;3.60;;;2.25;;
38609;SDS011;24367;51.640;9.566;2023-03-01T02:18:56;3.38;;;2.30;;
38609;SDS011;24367;51.640;9.566;2023-03-01T02:21:27;3.00;;;2.20;;
38609;SDS011;24367;51.640;9.566;2023-03-01T02:23:58;4.70;;;2.22;;
38609;SDS011;24367;51.640;9.566;2023-03-01T02:26:28;3.58;;;2.60;;
38609;SDS011;24367;51.640;9.566;2023-03-01T02:29:00;4.10;;;2.22;;
38609;SDS011;24367;51.640;9.566;2023-03-01T02:31:26;3.75;;;2.35;;
38609;SDS011;24367;51.640;9.566;2023-03-01T02:34:17;3.90;;;2.85;;
38609;SDS011;24367;51.640;9.566;2023-03-01T02:36:46;5.20;;;2.42;;
38609;SDS011;24367;51.640;9.566;2023-03-01T02:39:15;4.68;;;2.53;;
38609;SDS011;24367;51.640;9.566;2023-03-01T02:41:46;3.20;;;2.38;;
38609;SDS011;24367;51.640;9.566;2023-03-01T02:44:15;2.97;;;2.13;;
38609;SDS011;24367;51.640;9.566;2023-03-01T02:46:42;3.85;;;2.38;;
38609;SDS011;24367;51.640;9.566;2023-03-01T02:49:18;3.10;;;2.28;;
38609;SDS011;24367;51.640;9.566;2023-03-01T02:51:48;3.28;;;2.40;;
38609;SDS011;24367;51.640;9.566;2023-03-01T02:54:22;3.75;;;2.65;;
38609;SDS011;24367;51.640;9.566;2023-03-01T02:56:51;3.58;;;2.42;;
38609;SDS011;24367;51.640;9.566;2023-03-01T02:59:22;3.10;;;2.20;;
38609;SDS011;24367;51.640;9.566;2023-03-01T03:01:54;3.75;;;2.35;;
38609;SDS011;24367;51.640;9.566;2023-03-01T03:04:21;3.75;;;2.20;;
38609;SDS011;24367;51.640;9.566;2023-03-01T03:06:49;3.60;;;2.33;;
38609;SDS011;24367;51.640;9.566;2023-03-01T03:09:16;3.55;;;2.50;;
38609;SDS011;24367;51.640;9.566;2023-03-01T03:11:44;3.80;;;2.60;;
38609;SDS011;24367;51.640;9.566;2023-03-01T03:14:12;3.60;;;2.47;;
38609;SDS011;24367;51.640;9.566;2023-03-01T03:16:45;4.03;;;2.70;;
38609;SDS011;24367;51.640;9.566;2023-03-01T03:19:13;3.08;;;2.30;;
38609;SDS011;24367;51.640;9.566;2023-03-01T03:21:41;3.47;;;2.40;;
38609;SDS011;24367;51.640;9.566;2023-03-01T03:24:08;3.72;;;2.58;;
38609;SDS011;24367;51.640;9.566;2023-03-01T03:26:34;3.55;;;2.38;;
38609;SDS011;24367;51.640;9.566;2023-03-01T03:29:01;3.33;;;2.25;;
38609;SDS011;24367;51.640;9.566;2023-03-01T03:31:27;4.05;;;2.53;;
38609;SDS011;24367;51.640;9.566;2023-03-01T03:33:55;3.85;;;2.40;;
38609;SDS011;24367;51.640;9.566;2023-03-01T03:36:22;3.30;;;2.20;;
38609;SDS011;24367;51.640;9.566;2023-03-01T03:38:49;3.60;;;2.28;;
38609;SDS011;24367;51.640;9.566;2023-03-01T03:41:16;3.50;;;2.40;;
38609;SDS011;24367;51.640;9.566;2023-03-01T03:43:43;4.25;;;2.53;;
38609;SDS011;24367;51.640;9.566;2023-03-01T03:46:10;4.03;;;2.65;;
38609;SDS011;24367;51.640;9.566;2023-03-01T03:48:38;3.83;;;2.97;;
38609;SDS011;24367;51.640;9.566;2023-03-01T03:51:09;3.85;;;2.92;;
38609;SDS011;24367;51.640;9.566;2023-03-01T03:53:36;3.83;;;2.65;;
38609;SDS011;24367;51.640;9.566;2023-03-01T03:56:02;4.15;;;2.88;;
38609;SDS011;24367;51.640;9.566;2023-03-01T03:58:29;4.22;;;3.00;;
38609;SDS011;24367;51.640;9.566;2023-03-01T04:00:56;4.07;;;2.65;;
38609;SDS011;24367;51.640;9.566;2023-03-01T04:03:23;3.95;;;3.13;;
38609;SDS011;24367;51.640;9.566;2023-03-01T04:05:50;3.97;;;3.00;;
38609;SDS011;24367;51.640;9.566;2023-03-01T04:08:19;4.28;;;3.25;;
38609;SDS011;24367;51.640;9.566;2023-03-01T04:10:46;3.50;;;2.90;;
38609;SDS011;24367;51.640;9.566;2023-03-01T04:13:15;4.03;;;3.13;;
38609;SDS011;24367;51.640;9.566;2023-03-01T04:15:44;4.03;;;3.00;;
38609;SDS011;24367;51.640;9.566;2023-03-01T04:18:10;4.30;;;3.00;;
38609;SDS011;24367;51.640;9.566;2023-03-01T04:20:38;4.22;;;2.92;;
38609;SDS011;24367;51.640;9.566;2023-03-01T04:23:05;4.10;;;3.05;;
38609;SDS011;24367;51.640;9.566;2023-03-01T04:25:40;4.17;;;3.00;;
38609;SDS011;24367;51.640;9.566;2023-03-01T04:28:07;4.95;;;3.50;;
38609;SDS011;24367;51.640;9.566;2023-03-01T04:30:34;4.03;;;3.00;;
38609;SDS011;24367;51.640;9.566;2023-03-01T04:33:01;4.47;;;3.25;;
38609;SDS011;24367;51.640;9.566;2023-03-01T04:35:29;4.20;;;3.22;;
38609;SDS011;24367;51.640;9.566;2023-03-01T04:37:56;4.47;;;3.50;;
38609;SDS011;24367;51.640;9.566;2023-03-01T04:40:22;4.28;;;3.20;;
38609;SDS011;24367;51.640;9.566;2023-03-01T04:42:50;4.60;;;3.20;;
38609;SDS011;24367;51.640;9.566;2023-03-01T04:45:17;3.78;;;3.17;;
38609;SDS011;24367;51.640;9.566;2023-03-01T04:47:44;4.70;;;3.40;;
38609;SDS011;24367;51.640;9.566;2023-03-01T04:50:12;4.45;;;3.13;;
38609;SDS011;24367;51.640;9.566;2023-03-01T04:52:40;3.92;;;3.20;;
38609;SDS011;24367;51.640;9.566;2023-03-01T04:55:08;4.25;;;3.40;;
38609;SDS011;24367;51.640;9.566;2023-03-01T04:57:35;3.90;;;3.10;;
38609;SDS011;24367;51.640;9.566;2023-03-01T05:00:04;4.32;;;3.40;;
38609;SDS011;24367;51.640;9.566;2023-03-01T05:02:45;4.55;;;3.10;;
38609;SDS011;24367;51.640;9.566;2023-03-01T05:05:13;4.15;;;3.17;;
38609;SDS011;24367;51.640;9.566;2023-03-01T05:07:40;4.07;;;3.20;;
38609;SDS011;24367;51.640;9.566;2023-03-01T05:10:06;4.28;;;3.33;;
38609;SDS011;24367;51.640;9.566;2023-03-01T05:12:34;4.55;;;3.25;;
38609;SDS011;24367;51.640;9.566;2023-03-01T05:15:04;3.60;;;2.75;;
38609;SDS011;24367;51.640;9.566;2023-03-01T05:17:32;4.05;;;3.10;;
38609;SDS011;24367;51.640;9.566;2023-03-01T05:19:58;3.90;;;3.00;;
38609;SDS011;24367;51.640;9.566;2023-03-01T05:22:26;3.88;;;2.83;;
38609;SDS011;24367;51.640;9.566;2023-03-01T05:24:52;3.97;;;3.03;;
38609;SDS011;24367;51.640;9.566;2023-03-01T05:27:20;4.55;;;3.05;;
38609;SDS011;24367;51.640;9.566;2023-03-01T05:29:47;3.53;;;2.65;;
38609;SDS011;24367;51.640;9.566;2023-03-01T05:32:15;3.40;;;2.67;;
38609;SDS011;24367;51.640;9.566;2023-03-01T05:34:42;3.50;;;2.78;;
38609;SDS011;24367;51.640;9.566;2023-03-01T05:37:09;4.22;;;3.15;;
38609;SDS011;24367;51.640;9.566;2023-03-01T05:39:35;3.75;;;2.83;;
38609;SDS011;24367;51.640;9.566;2023-03-01T05:42:02;4.20;;;2.92;;
38609;SDS011;24367;51.640;9.566;2023-03-01T05:44:29;3.83;;;2.95;;
38609;SDS011;24367;51.640;9.566;2023-03-01T05:46:55;3.90;;;3.10;;
38609;SDS011;24367;51.640;9.566;2023-03-01T05:49:23;4.00;;;2.97;;
38609;SDS011;24367;51.640;9.566;2023-03-01T05:51:52;4.15;;;3.20;;
38609;SDS011;24367;51.640;9.566;2023-03-01T05:54:19;3.47;;;2.83;;
38609;SDS011;24367;51.640;9.566;2023-03-01T05:56:46;3.70;;;2.83;;
38609;SDS011;24367;51.640;9.566;2023-03-01T05:59:13;4.88;;;2.83;;
38609;SDS011;24367;51.640;9.566;2023-03-01T06:01:41;4.05;;;3.20;;
38609;SDS011;24367;51.640;9.566;2023-03-01T06:04:08;4.50;;;2.80;;
38609;SDS011;24367;51.640;9.566;2023-03-01T06:06:36;4.00;;;2.80;;
38609;SDS011;24367;51.640;9.566;2023-03-01T06:09:03;3.80;;;2.97;;
38609;SDS011;24367;51.640;9.566;2023-03-01T06:11:33;4.28;;;3.10;;
38609;SDS011;24367;51.640;9.566;2023-03-01T06:13:59;3.80;;;2.80;;
38609;SDS011;24367;51.640;9.566;2023-03-01T06:16:26;3.30;;;2.75;;
38609;SDS011;24367;51.640;9.566;2023-03-01T06:18:52;3.50;;;2.80;;
38609;SDS011;24367;51.640;9.566;2023-03-01T06:21:19;3.50;;;2.80;;
38609;SDS011;24367;51.640;9.566;2023-03-01T06:23:47;4.43;;;2.97;;
38609;SDS011;24367;51.640;9.566;2023-03-01T06:26:13;4.35;;;2.75;;
38609;SDS011;24367;51.640;9.566;2023-03-01T06:28:40;3.95;;;2.72;;
38609;SDS011;24367;51.640;9.566;2023-03-01T06:31:06;4.05;;;2.95;;
38609;SDS011;24367;51.640;9.566;2023-03-01T06:33:33;4.63;;;2.60;;
38609;SDS011;24367;51.640;9.566;2023-03-01T06:36:01;3.83;;;3.17;;
38609;SDS011;24367;51.640;9.566;2023-03-01T06:38:27;4.00;;;2.95;;
38609;SDS011;24367;51.640;9.566;2023-03-01T06:40:55;3.80;;;2.50;;
38609;SDS011;24367;51.640;9.566;2023-03-01T06:43:22;5.15;;;3.00;;
38609;SDS011;24367;51.640;9.566;2023-03-01T06:45:49;3.85;;;2.80;;
38609;SDS011;24367;51.640;9.566;2023-03-01T06:48:16;12.98;;;3.20;;
38609;SDS011;24367;51.640;9.566;2023-03-01T06:50:42;5.53;;;3.40;;
38609;SDS011;24367;51.640;9.566;2023-03-01T06:53:09;4.80;;;3.03;;
38609;SDS011;24367;51.640;9.566;2023-03-01T06:55:35;4.25;;;3.42;;
38609;SDS011;24367;51.640;9.566;2023-03-01T06:58:03;5.30;;;4.00;;
38609;SDS011;24367;51.640;9.566;2023-03-01T07:00:30;4.75;;;3.45;;
38609;SDS011;24367;51.640;9.566;2023-03-01T07:02:58;8.63;;;3.50;;
38609;SDS011;24367;51.640;9.566;2023-03-01T07:05:24;4.00;;;3.03;;
38609;SDS011;24367;51.640;9.566;2023-03-01T07:07:51;5.30;;;3.42;;
38609;SDS011;24367;51.640;9.566;2023-03-01T07:10:20;4.05;;;2.85;;
38609;SDS011;24367;51.640;9.566;2023-03-01T07:12:46;5.95;;;3.35;;
38609;SDS011;24367;51.640;9.566;2023-03-01T07:15:14;4.50;;;3.13;;
38609;SDS011;24367;51.640;9.566;2023-03-01T07:17:40;4.28;;;3.17;;
38609;SDS011;24367;51.640;9.566;2023-03-01T07:20:09;4.15;;;3.28;;
38609;SDS011;24367;51.640;9.566;2023-03-01T07:22:39;4.30;;;3.13;;
38609;SDS011;24367;51.640;9.566;2023-03-01T07:25:06;4.38;;;3.00;;
38609;SDS011;24367;51.640;9.566;2023-03-01T07:27:32;3.60;;;2.90;;
38609;SDS011;24367;51.640;9.566;2023-03-01T07:29:59;3.95;;;3.00;;
38609;SDS011;24367;51.640;9.566;2023-03-01T07:32:27;5.20;;;2.92;;
38609;SDS011;24367;51.640;9.566;2023-03-01T07:34:53;4.32;;;3.00;;
38609;SDS011;24367;51.640;9.566;2023-03-01T07:37:20;3.75;;;2.70;;
38609;SDS011;24367;51.640;9.566;2023-03-01T07:39:46;4.03;;;3.15;;
38609;SDS011;24367;51.640;9.566;2023-03-01T07:42:13;6.22;;;3.33;;
38609;SDS011;24367;51.640;9.566;2023-03-01T07:44:39;4.57;;;3.00;;
38609;SDS011;24367;51.640;9.566;2023-03-01T07:47:06;4.65;;;2.90;;
38609;SDS011;24367;51.640;9.566;2023-03-01T07:49:33;4.15;;;2.97;;
38609;SDS011;24367;51.640;9.566;2023-03-01T07:52:00;3.83;;;2.85;;
38609;SDS011;24367;51.640;9.566;2023-03-01T07:54:26;5.18;;;2.92;;
38609;SDS011;24367;51.640;9.566;2023-03-01T07:56:53;3.45;;;2.72;;
38609;SDS011;24367;51.640;9.566;2023-03-01T07:59:20;3.97;;;3.20;;
38609;SDS011;24367;51.640;9.566;2023-03-01T08:01:48;4.30;;;3.13;;
38609;SDS011;24367;51.640;9.566;2023-03-01T08:04:15;4.63;;;3.33;;
38609;SDS011;24367;51.640;9.566;2023-03-01T08:06:43;4.57;;;2.90;;
38609;SDS011;24367;51.640;9.566;2023-03-01T08:09:09;4.43;;;3.25;;
38609;SDS011;24367;51.640;9.566;2023-03-01T08:11:35;4.35;;;2.75;;
38609;SDS011;24367;51.640;9.566;2023-03-01T08:14:02;4.60;;;3.30;;
38609;SDS011;24367;51.640;9.566;2023-03-01T08:16:29;4.32;;;3.38;;
38609;SDS011;24367;51.640;9.566;2023-03-01T08:18:55;4.07;;;3.35;;
38609;SDS011;24367;51.640;9.566;2023-03-01T08:21:25;4.95;;;3.20;;
38609;SDS011;24367;51.640;9.566;2023-03-01T08:23:53;4.03;;;2.95;;
38609;SDS011;24367;51.640;9.566;2023-03-01T08:26:20;4.65;;;3.33;;
38609;SDS011;24367;51.640;9.566;2023-03-01T08:28:47;3.97;;;2.92;;
38609;SDS011;24367;51.640;9.566;2023-03-01T08:31:14;6.00;;;3.25;;
38609;SDS011;24367;51.640;9.566;2023-03-01T08:33:41;4.75;;;3.25;;
38609;SDS011;24367;51.640;9.566;2023-03-01T08:36:08;4.53;;;3.05;;
38609;SDS011;24367;51.640;9.566;2023-03-01T08:38:34;5.47;;;3.67;;
38609;SDS011;24367;51.640;9.566;2023-03-01T08:41:03;6.20;;;3.78;;
38609;SDS011;24367;51.640;9.566;2023-03-01T08:43:30;4.38;;;3.20;;
38609;SDS011;24367;51.640;9.566;2023-03-01T08:45:57;5.40;;;3.70;;
38609;SDS011;24367;51.640;9.566;2023-03-01T08:48:23;4.60;;;3.30;;
38609;SDS011;24367;51.640;9.566;2023-03-01T08:50:50;5.82;;;3.50;;
38609;SDS011;24367;51.640;9.566;2023-03-01T08:53:16;4.93;;;3.58;;
38609;SDS011;24367;51.640;9.566;2023-03-01T08:55:43;4.75;;;3.47;;
38609;SDS011;24367;51.640;9.566;2023-03-01T08:58:10;5.05;;;3.25;;
38609;SDS011;24367;51.640;9.566;2023-03-01T09:00:37;5.53;;;3.63;;
38609;SDS011;24367;51.640;9.566;2023-03-01T09:03:03;4.40;;;3.08;;
38609;SDS011;24367;51.640;9.566;2023-03-01T09:05:31;4.13;;;3.15;;
38609;SDS011;24367;51.640;9.566;2023-03-01T09:07:58;4.68;;;3.38;;
38609;SDS011;24367;51.640;9.566;2023-03-01T09:10:24;4.28;;;3.42;;
38609;SDS011;24367;51.640;9.566;2023-03-01T09:12:51;4.50;;;3.60;;
38609;SDS011;24367;51.640;9.566;2023-03-01T09:15:18;4.78;;;3.30;;
38609;SDS011;24367;51.640;9.566;2023-03-01T09:17:45;5.65;;;4.47;;
38609;SDS011;24367;51.640;9.566;2023-03-01T09:20:11;21.70;;;9.82;;
38609;SDS011;24367;51.640;9.566;2023-03-01T09:22:38;17.98;;;8.60;;
38609;SDS011;24367;51.640;9.566;2023-03-01T09:25:05;12.63;;;7.65;;
38609;SDS011;24367;51.640;9.566;2023-03-01T09:27:32;13.77;;;6.85;;
38609;SDS011;24367;51.640;9.566;2023-03-01T09:29:58;13.68;;;6.45;;
38609;SDS011;24367;51.640;9.566;2023-03-01T09:32:26;11.02;;;5.88;;
38609;SDS011;24367;51.640;9.566;2023-03-01T09:34:52;9.38;;;5.75;;
38609;SDS011;24367;51.640;9.566;2023-03-01T09:37:29;6.90;;;5.20;;
38609;SDS011;24367;51.640;9.566;2023-03-01T09:39:56;10.02;;;5.35;;
38609;SDS011;24367;51.640;9.566;2023-03-01T09:42:22;7.50;;;4.78;;
38609;SDS011;24367;51.640;9.566;2023-03-01T09:44:50;9.25;;;5.47;;
38609;SDS011;24367;51.640;9.566;2023-03-01T09:47:18;9.00;;;5.03;;
38609;SDS011;24367;51.640;9.566;2023-03-01T09:49:48;8.02;;;4.85;;
38609;SDS011;24367;51.640;9.566;2023-03-01T09:52:21;11.32;;;4.93;;
38609;SDS011;24367;51.640;9.566;2023-03-01T09:54:52;8.68;;;4.82;;
38609;SDS011;24367;51.640;9.566;2023-03-01T09:57:23;8.55;;;4.35;;
38609;SDS011;24367;51.640;9.566;2023-03-01T10:02:45;7.47;;;4.47;;
38609;SDS011;24367;51.640;9.566;2023-03-01T10:11:02;5.25;;;4.10;;
38609;SDS011;24367;51.640;9.566;2023-03-01T10:13:34;5.72;;;4.22;;
38609;SDS011;24367;51.640;9.566;2023-03-01T10:16:06;5.70;;;4.18;;
38609;SDS011;24367;51.640;9.566;2023-03-01T10:18:36;5.82;;;3.97;;
38609;SDS011;24367;51.640;9.566;2023-03-01T10:21:08;5.00;;;3.90;;
38609;SDS011;24367;51.640;9.566;2023-03-01T10:23:39;5.40;;;3.80;;
38609;SDS011;24367;51.640;9.566;2023-03-01T10:26:12;5.03;;;4.10;;
38609;SDS011;24367;51.640;9.566;2023-03-01T10:28:47;7.35;;;4.30;;
38609;SDS011;24367;51.640;9.566;2023-03-01T10:31:18;5.72;;;4.00;;
38609;SDS011;24367;51.640;9.566;2023-03-01T10:33:47;4.78;;;3.35;;
38609;SDS011;24367;51.640;9.566;2023-03-01T10:36:19;5.43;;;3.88;;
38609;SDS011;24367;51.640;9.566;2023-03-01T10:38:47;4.82;;;3.45;;
38609;SDS011;24367;51.640;9.566;2023-03-01T10:41:14;4.43;;;3.47;;
38609;SDS011;24367;51.640;9.566;2023-03-01T10:43:43;5.40;;;3.92;;
38609;SDS011;24367;51.640;9.566;2023-03-01T10:46:21;5.35;;;3.70;;
38609;SDS011;24367;51.640;9.566;2023-03-01T10:51:33;4.65;;;3.50;;
38609;SDS011;24367;51.640;9.566;2023-03-01T10:53:59;6.75;;;3.70;;
38609;SDS011;24367;51.640;9.566;2023-03-01T10:56:27;4.85;;;3.33;;
38609;SDS011;24367;51.640;9.566;2023-03-01T10:58:57;5.00;;;3.90;;
38609;SDS011;24367;51.640;9.566;2023-03-01T11:01:25;4.82;;;3.95;;
38609;SDS011;24367;51.640;9.566;2023-03-01T11:04:03;5.03;;;3.75;;
38609;SDS011;24367;51.640;9.566;2023-03-01T11:06:37;8.10;;;4.20;;
38609;SDS011;24367;51.640;9.566;2023-03-01T11:09:13;4.45;;;3.28;;
38609;SDS011;24367;51.640;9.566;2023-03-01T11:11:40;4.30;;;3.33;;
38609;SDS011;24367;51.640;9.566;2023-03-01T11:14:07;4.00;;;3.10;;
38609;SDS011;24367;51.640;9.566;2023-03-01T11:16:41;5.05;;;3.00;;
38609;SDS011;24367;51.640;9.566;2023-03-01T11:19:16;4.32;;;3.50;;
38609;SDS011;24367;51.640;9.566;2023-03-01T11:21:50;4.68;;;3.20;;
38609;SDS011;24367;51.640;9.566;2023-03-01T11:24:19;5.97;;;3.25;;
38609;SDS011;24367;51.640;9.566;2023-03-01T11:26:52;4.43;;;3.35;;
38609;SDS011;24367;51.640;9.566;2023-03-01T11:29:22;4.75;;;3.38;;
38609;SDS011;24367;51.640;9.566;2023-03-01T11:31:53;3.55;;;3.03;;
38609;SDS011;24367;51.640;9.566;2023-03-01T11:34:23;4.32;;;3.30;;
38609;SDS011;24367;51.640;9.566;2023-03-01T11:36:59;3.85;;;3.08;;
38609;SDS011;24367;51.640;9.566;2023-03-01T11:39:30;4.03;;;2.97;;
38609;SDS011;24367;51.640;9.566;2023-03-01T11:42:01;3.75;;;2.95;;
38609;SDS011;24367;51.640;9.566;2023-03-01T11:44:29;4.63;;;3.03;;
38609;SDS011;24367;51.640;9.566;2023-03-01T11:47:04;4.20;;;3.10;;
38609;SDS011;24367;51.640;9.566;2023-03-01T11:49:45;4.10;;;3.00;;
38609;SDS011;24367;51.640;9.566;2023-03-01T11:52:21;4.35;;;3.25;;
38609;SDS011;24367;51.640;9.566;2023-03-01T11:54:56;4.15;;;3.10;;
38609;SDS011;24367;51.640;9.566;2023-03-01T11:57:35;3.75;;;2.75;;
38609;SDS011;24367;51.640;9.566;2023-03-01T12:00:14;3.40;;;2.50;;
38609;SDS011;24367;51.640;9.566;2023-03-01T12:02:59;4.30;;;3.30;;
38609;SDS011;24367;51.640;9.566;2023-03-01T12:08:35;3.83;;;2.80;;
38609;SDS011;24367;51.640;9.566;2023-03-01T12:11:07;3.92;;;2.95;;
38609;SDS011;24367;51.640;9.566;2023-03-01T12:13:58;3.63;;;2.80;;
38609;SDS011;24367;51.640;9.566;2023-03-01T12:16:53;3.85;;;2.63;;
38609;SDS011;24367;51.640;9.566;2023-03-01T12:19:30;3.75;;;3.08;;
38609;SDS011;24367;51.640;9.566;2023-03-01T12:22:07;3.63;;;2.60;;
38609;SDS011;24367;51.640;9.566;2023-03-01T12:24:53;3.65;;;2.70;;
38609;SDS011;24367;51.640;9.566;2023-03-01T12:27:42;3.88;;;2.90;;
38609;SDS011;24367;51.640;9.566;2023-03-01T12:30:21;4.70;;;2.72;;
38609;SDS011;24367;51.640;9.566;2023-03-01T12:32:54;3.78;;;2.70;;
38609;SDS011;24367;51.640;9.566;2023-03-01T12:38:22;3.42;;;2.40;;
38609;SDS011;24367;51.640;9.566;2023-03-01T12:41:04;3.97;;;2.78;;
38609;SDS011;24367;51.640;9.566;2023-03-01T12:43:41;3.35;;;2.42;;
38609;SDS011;24367;51.640;9.566;2023-03-01T12:46:25;3.47;;;2.75;;
38609;SDS011;24367;51.640;9.566;2023-03-01T12:49:01;3.47;;;2.22;;
38609;SDS011;24367;51.640;9.566;2023-03-01T12:51:32;3.35;;;2.47;;
38609;SDS011;24367;51.640;9.566;2023-03-01T12:54:01;3.25;;;2.28;;
38609;SDS011;24367;51.640;9.566;2023-03-01T12:56:34;3.40;;;2.30;;
38609;SDS011;24367;51.640;9.566;2023-03-01T12:59:05;5.88;;;2.67;;
38609;SDS011;24367;51.640;9.566;2023-03-01T13:01:38;3.50;;;2.38;;
38609;SDS011;24367;51.640;9.566;2023-03-01T13:04:12;3.40;;;2.45;;
38609;SDS011;24367;51.640;9.566;2023-03-01T13:06:44;17.20;;;3.20;;
38609;SDS011;24367;51.640;9.566;2023-03-01T13:09:19;9.20;;;3.03;;
38609;SDS011;24367;51.640;9.566;2023-03-01T13:11:49;6.97;;;2.65;;
38609;SDS011;24367;51.640;9.566;2023-03-01T13:14:35;4.28;;;2.20;;
38609;SDS011;24367;51.640;9.566;2023-03-01T13:17:30;5.60;;;2.22;;
38609;SDS011;24367;51.640;9.566;2023-03-01T13:19:58;3.20;;;2.30;;
38609;SDS011;24367;51.640;9.566;2023-03-01T13:22:26;4.72;;;2.13;;
38609;SDS011;24367;51.640;9.566;2023-03-01T13:25:00;3.30;;;2.30;;
38609;SDS011;24367;51.640;9.566;2023-03-01T13:27:29;6.38;;;2.38;;
38609;SDS011;24367;51.640;9.566;2023-03-01T13:29:57;3.85;;;2.45;;
38609;SDS011;24367;51.640;9.566;2023-03-01T13:32:29;5.07;;;2.30;;
38609;SDS011;24367;51.640;9.566;2023-03-01T13:34:58;3.58;;;2.15;;
38609;SDS011;24367;51.640;9.566;2023-03-01T13:37:26;4.38;;;2.03;;
38609;SDS011;24367;51.640;9.566;2023-03-01T13:45:57;5.38;;;2.63;;
38609;SDS011;24367;51.640;9.566;2023-03-01T13:48:25;10.88;;;2.40;;
38609;SDS011;24367;51.640;9.566;2023-03-01T13:50:53;3.60;;;2.13;;
38609;SDS011;24367;51.640;9.566;2023-03-01T13:53:21;4.63;;;2.03;;
38609;SDS011;24367;51.640;9.566;2023-03-01T13:55:49;5.72;;;2.00;;
38609;SDS011;24367;51.640;9.566;2023-03-01T13:58:21;4.30;;;2.20;;
38609;SDS011;24367;51.640;9.566;2023-03-01T14:00:56;5.38;;;2.38;;
38609;SDS011;24367;51.640;9.566;2023-03-01T14:03:24;3.60;;;2.17;;
38609;SDS011;24367;51.640;9.566;2023-03-01T14:05:58;6.05;;;2.30;;
38609;SDS011;24367;51.640;9.566;2023-03-01T14:08:31;6.50;;;2.35;;
38609;SDS011;24367;51.640;9.566;2023-03-01T14:13:48;6.60;;;2.13;;
38609;SDS011;24367;51.640;9.566;2023-03-01T14:16:25;4.15;;;2.40;;
38609;SDS011;24367;51.640;9.566;2023-03-01T14:18:59;4.97;;;2.00;;
38609;SDS011;24367;51.640;9.566;2023-03-01T14:21:32;4.38;;;2.58;;
38609;SDS011;24367;51.640;9.566;2023-03-01T14:23:58;3.03;;;2.15;;
38609;SDS011;24367;51.640;9.566;2023-03-01T14:26:25;4.38;;;2.03;;
38609;SDS011;24367;51.640;9.566;2023-03-01T14:28:51;3.65;;;2.10;;
38609;SDS011;24367;51.640;9.566;2023-03-01T14:31:36;8.60;;;2.17;;
38609;SDS011;24367;51.640;9.566;2023-03-01T14:34:03;3.53;;;2.30;;
38609;SDS011;24367;51.640;9.566;2023-03-01T14:36:31;3.22;;;2.10;;
38609;SDS011;24367;51.640;9.566;2023-03-01T14:38:59;3.17;;;1.95;;
38609;SDS011;24367;51.640;9.566;2023-03-01T14:41:31;3.50;;;2.05;;
38609;SDS011;24367;51.640;9.566;2023-03-01T14:44:01;4.97;;;2.53;;
38609;SDS011;24367;51.640;9.566;2023-03-01T14:46:30;3.50;;;2.10;;
38609;SDS011;24367;51.640;9.566;2023-03-01T14:49:02;16.17;;;3.20;;
38609;SDS011;24367;51.640;9.566;2023-03-01T14:51:30;4.55;;;2.00;;
38609;SDS011;24367;51.640;9.566;2023-03-01T14:53:56;6.38;;;2.20;;
38609;SDS011;24367;51.640;9.566;2023-03-01T14:56:23;5.38;;;2.13;;
38609;SDS011;24367;51.640;9.566;2023-03-01T14:58:52;4.93;;;1.98;;
38609;SDS011;24367;51.640;9.566;2023-03-01T15:01:19;5.13;;;2.53;;
38609;SDS011;24367;51.640;9.566;2023-03-01T15:03:47;2.47;;;1.90;;
38609;SDS011;24367;51.640;9.566;2023-03-01T15:06:17;3.88;;;2.30;;
38609;SDS011;24367;51.640;9.566;2023-03-01T15:08:45;3.58;;;1.98;;
38609;SDS011;24367;51.640;9.566;2023-03-01T15:11:17;4.68;;;2.03;;
38609;SDS011;24367;51.640;9.566;2023-03-01T15:13:47;4.05;;;2.15;;
38609;SDS011;24367;51.640;9.566;2023-03-01T15:16:15;3.30;;;1.75;;
38609;SDS011;24367;51.640;9.566;2023-03-01T15:18:44;3.60;;;1.75;;
38609;SDS011;24367;51.640;9.566;2023-03-01T15:21:16;3.88;;;2.22;;
38609;SDS011;24367;51.640;9.566;2023-03-01T15:23:47;9.43;;;1.70;;
38609;SDS011;24367;51.640;9.566;2023-03-01T15:26:22;5.35;;;2.22;;